Time;durP1;ratioP1;P1;durP2;ratioP2;P2;SDS_P1;SDS_P2;PMS_P1;PMS_P2;Temp;Humidity;BMP_temperature;BMP_pressure;BME280_temperature;BME280_humidity;BME280_pressure;Samples;Min_cycle;Max_cycle;Signal;HPM_P1;HPM_P2
2024/01/19 00:02:16;;;;;;;0.63;0.63;;;10.30;99.90;;;;;;5088957;28;20421;-85
2024/01/19 00:04:42;;;;;;;0.30;0.30;;;10.30;99.90;;;;;;5088302;28;20666;-82
2024/01/19 00:07:08;;;;;;;0.30;0.20;;;10.30;99.90;;;;;;5090326;28;20561;-79
2024/01/19 00:09:33;;;;;;;0.30;0.20;;;10.30;99.90;;;;;;5089873;28;20243;-79
2024/01/19 00:11:59;;;;;;;2.27;2.17;;;10.30;99.90;;;;;;5090066;28;20195;-79
2024/01/19 00:14:25;;;;;;;2.40;2.30;;;10.30;99.90;;;;;;5089458;28;20212;-79
2024/01/19 00:16:51;;;;;;;0.30;0.20;;;10.20;99.90;;;;;;5088112;28;20212;-85
2024/01/19 00:19:16;;;;;;;0.30;0.20;;;10.30;99.90;;;;;;5086796;28;20202;-79
2024/01/19 00:21:46;;;;;;;0.30;0.20;;;10.40;99.90;;;;;;5089934;28;20203;-84
2024/01/19 00:24:15;;;;;;;0.95;0.95;;;10.40;99.90;;;;;;5089303;28;20192;-79
2024/01/19 00:26:42;;;;;;;0.30;0.20;;;10.50;99.90;;;;;;5088633;28;20287;-85
2024/01/19 00:29:08;;;;;;;0.43;0.43;;;10.50;99.90;;;;;;5089076;28;20180;-79
2024/01/19 00:31:35;;;;;;;0.30;0.30;;;10.60;99.90;;;;;;5088644;28;20226;-85
2024/01/19 00:34:00;;;;;;;3.22;3.00;;;10.60;99.90;;;;;;5089151;28;20208;-79
2024/01/19 00:36:26;;;;;;;0.30;0.20;;;10.70;99.90;;;;;;5088055;28;20180;-79
2024/01/19 00:38:52;;;;;;;0.30;0.20;;;10.70;99.90;;;;;;5088089;28;20215;-85
2024/01/19 00:41:18;;;;;;;0.30;0.30;;;10.70;99.90;;;;;;5089544;28;20169;-80
2024/01/19 00:43:44;;;;;;;0.30;0.20;;;10.80;99.90;;;;;;5087878;28;20518;-79
2024/01/19 00:46:11;;;;;;;0.30;0.20;;;10.80;99.90;;;;;;5089447;28;20275;-84
2024/01/19 00:48:37;;;;;;;0.40;0.40;;;10.90;99.90;;;;;;5089317;28;20543;-83
2024/01/19 00:51:03;;;;;;;0.30;0.20;;;10.90;99.90;;;;;;5087057;28;20267;-79
2024/01/19 00:53:28;;;;;;;3.10;1.52;;;10.90;99.90;;;;;;5087872;28;20492;-79
2024/01/19 00:55:54;;;;;;;3.60;2.60;;;10.90;99.90;;;;;;5087979;28;20608;-85
2024/01/19 00:58:20;;;;;;;0.30;0.20;;;10.90;99.90;;;;;;5089686;28;20197;-79
2024/01/19 01:00:45;;;;;;;0.30;0.20;;;10.90;99.90;;;;;;5087938;28;20353;-85
2024/01/19 01:03:20;;;;;;;0.30;0.20;;;10.90;99.90;;;;;;5089305;28;20231;-81
2024/01/19 01:05:45;;;;;;;0.30;0.20;;;10.90;99.90;;;;;;5088082;28;20647;-79
2024/01/19 01:08:11;;;;;;;0.30;0.20;;;10.90;99.90;;;;;;5089404;28;20430;-79
2024/01/19 01:10:37;;;;;;;1.60;1.57;;;10.90;99.90;;;;;;5087893;28;20227;-79
2024/01/19 01:13:03;;;;;;;0.30;0.20;;;10.90;99.90;;;;;;5087775;28;20280;-79
2024/01/19 01:15:28;;;;;;;0.30;0.30;;;10.90;99.90;;;;;;5089181;28;20172;-85
2024/01/19 01:17:54;;;;;;;0.30;0.20;;;10.90;99.90;;;;;;5088521;28;20200;-85
2024/01/19 01:20:20;;;;;;;0.30;0.20;;;11.00;99.90;;;;;;5087555;28;20625;-85
2024/01/19 01:22:46;;;;;;;0.30;0.30;;;11.00;99.90;;;;;;5089347;28;20201;-79
2024/01/19 01:25:12;;;;;;;1.63;1.50;;;11.10;99.90;;;;;;5087646;28;20677;-80
2024/01/19 01:27:37;;;;;;;0.30;0.20;;;11.10;99.90;;;;;;5088126;28;20271;-85
2024/01/19 01:30:07;;;;;;;0.30;0.20;;;11.20;99.90;;;;;;5087579;28;20427;-84
2024/01/19 01:32:33;;;;;;;1.58;1.55;;;11.20;99.90;;;;;;5092637;28;20585;-79
2024/01/19 01:34:59;;;;;;;0.40;0.20;;;11.20;99.90;;;;;;5092408;28;20267;-85
2024/01/19 01:37:24;;;;;;;0.30;0.30;;;11.30;99.90;;;;;;5092775;28;20251;-79
2024/01/19 01:39:50;;;;;;;13.83;12.90;;;11.30;99.90;;;;;;5091582;28;20193;-85
2024/01/19 01:42:16;;;;;;;0.30;0.20;;;11.40;99.90;;;;;;5093057;28;20188;-79
2024/01/19 01:44:41;;;;;;;0.30;0.20;;;11.40;99.90;;;;;;5092509;28;20192;-79
2024/01/19 01:47:07;;;;;;;0.30;0.20;;;11.40;99.90;;;;;;5108116;28;20467;-79
2024/01/19 01:49:33;;;;;;;0.30;0.20;;;11.50;99.90;;;;;;5108100;28;20738;-85
2024/01/19 01:51:59;;;;;;;0.30;0.20;;;11.50;99.90;;;;;;5092060;28;20658;-85
2024/01/19 01:54:25;;;;;;;0.30;0.20;;;11.50;99.90;;;;;;5091730;28;20227;-85
2024/01/19 01:56:52;;;;;;;0.82;0.82;;;11.50;99.90;;;;;;5108154;28;20191;-79
2024/01/19 01:59:19;;;;;;;0.30;0.20;;;11.50;99.90;;;;;;5092091;28;20188;-85
2024/01/19 02:01:46;;;;;;;0.30;0.20;;;11.50;99.90;;;;;;5108069;28;20233;-79
2024/01/19 02:04:12;;;;;;;0.30;0.20;;;11.50;99.90;;;;;;5091465;28;20211;-85
2024/01/19 02:06:39;;;;;;;0.30;0.20;;;11.50;99.90;;;;;;5092533;28;20470;-84
2024/01/19 02:09:07;;;;;;;0.30;0.20;;;11.50;99.90;;;;;;5091375;28;20269;-79
2024/01/19 02:11:33;;;;;;;0.77;0.77;;;11.50;99.90;;;;;;5092598;28;20661;-80
2024/01/19 02:13:58;;;;;;;0.30;0.20;;;11.50;99.90;;;;;;5091761;28;20269;-79
2024/01/19 02:16:24;;;;;;;0.30;0.20;;;11.40;99.90;;;;;;5106760;28;20896;-85
2024/01/19 02:18:51;;;;;;;0.30;0.20;;;11.40;99.90;;;;;;5091317;28;20697;-79
2024/01/19 02:21:18;;;;;;;0.30;0.20;;;11.40;99.90;;;;;;5091990;28;20204;-79
2024/01/19 02:23:54;;;;;;;0.30;0.20;;;11.30;99.90;;;;;;5091625;28;20199;-85
2024/01/19 02:26:20;;;;;;;0.30;0.20;;;11.30;99.90;;;;;;5092245;28;20157;-85
2024/01/19 02:28:46;;;;;;;0.30;0.20;;;11.30;99.90;;;;;;5091943;28;20211;-85
2024/01/19 02:31:11;;;;;;;0.30;0.20;;;11.20;99.90;;;;;;5107739;28;20164;-83
2024/01/19 02:33:37;;;;;;;1.53;1.43;;;11.20;99.90;;;;;;5091249;28;20710;-84
2024/01/19 02:36:02;;;;;;;0.30;0.30;;;11.10;99.90;;;;;;5091905;28;20552;-83
2024/01/19 02:38:28;;;;;;;0.30;0.20;;;11.10;99.90;;;;;;5091456;28;20755;-79
2024/01/19 02:40:54;;;;;;;0.30;0.20;;;11.10;99.90;;;;;;5107317;28;20177;-83
2024/01/19 02:43:19;;;;;;;0.30;0.20;;;11.00;99.90;;;;;;5106479;28;20223;-85
2024/01/19 02:45:45;;;;;;;0.30;0.20;;;11.00;99.90;;;;;;5091593;28;20168;-84
2024/01/19 02:48:12;;;;;;;0.30;0.20;;;11.00;99.90;;;;;;5089666;28;20239;-85
2024/01/19 02:50:38;;;;;;;0.30;0.20;;;10.90;99.90;;;;;;5107193;28;20183;-84
2024/01/19 02:53:04;;;;;;;0.30;0.20;;;10.80;99.90;;;;;;5090317;28;20247;-84
2024/01/19 02:55:29;;;;;;;0.30;0.20;;;10.80;99.90;;;;;;5106616;28;20176;-80
2024/01/19 02:57:55;;;;;;;0.33;0.23;;;10.70;99.90;;;;;;5091217;28;20197;-84
2024/01/19 03:00:21;;;;;;;0.30;0.20;;;10.60;99.90;;;;;;5091265;28;20191;-83
2024/01/19 03:02:46;;;;;;;0.30;0.20;;;10.50;99.90;;;;;;5091113;28;20200;-84
2024/01/19 03:05:12;;;;;;;0.30;0.20;;;10.50;99.90;;;;;;5090855;28;20656;-83
2024/01/19 03:07:38;;;;;;;0.30;0.20;;;10.40;99.90;;;;;;5106701;28;20225;-85
2024/01/19 03:10:04;;;;;;;0.30;0.20;;;10.40;99.90;;;;;;5090396;28;20676;-86
2024/01/19 03:12:30;;;;;;;0.50;0.50;;;10.30;99.90;;;;;;5090841;28;20173;-79
2024/01/19 03:14:55;;;;;;;0.30;0.20;;;10.30;99.90;;;;;;5106336;28;20677;-79
2024/01/19 03:17:21;;;;;;;3.73;3.60;;;10.20;99.90;;;;;;5106150;28;20545;-79
2024/01/19 03:19:47;;;;;;;0.30;0.20;;;10.10;99.90;;;;;;5105844;28;20241;-79
2024/01/19 03:22:12;;;;;;;0.30;0.20;;;10.00;99.90;;;;;;5106722;28;20187;-84
2024/01/19 03:24:38;;;;;;;0.40;0.40;;;9.90;99.90;;;;;;5090379;28;20192;-79
2024/01/19 03:27:04;;;;;;;2.77;2.67;;;9.80;99.90;;;;;;5090696;28;20225;-85
2024/01/19 03:29:29;;;;;;;0.40;0.30;;;9.70;99.90;;;;;;5090385;28;20184;-79
2024/01/19 03:31:55;;;;;;;0.30;0.20;;;9.60;99.90;;;;;;5090844;28;20638;-79
2024/01/19 03:34:21;;;;;;;0.30;0.20;;;9.50;99.90;;;;;;5106043;28;20207;-79
2024/01/19 03:36:46;;;;;;;1.27;1.17;;;9.40;99.90;;;;;;5091306;28;20181;-80
2024/01/19 03:39:13;;;;;;;0.30;0.20;;;9.30;99.90;;;;;;5105508;28;20196;-85
2024/01/19 03:41:38;;;;;;;0.30;0.20;;;9.30;99.90;;;;;;5106474;28;20456;-79
2024/01/19 03:44:04;;;;;;;0.30;0.20;;;9.20;99.90;;;;;;5105383;28;20199;-85
2024/01/19 03:46:30;;;;;;;2.37;2.20;;;9.10;99.90;;;;;;5090535;28;20718;-85
2024/01/19 03:48:55;;;;;;;0.30;0.20;;;9.00;99.90;;;;;;5088468;28;20198;-81
2024/01/19 03:51:21;;;;;;;0.30;0.20;;;8.90;99.90;;;;;;5090240;28;20251;-79
2024/01/19 03:53:47;;;;;;;0.30;0.20;;;8.80;99.90;;;;;;5089185;28;20212;-85
2024/01/19 03:56:12;;;;;;;0.30;0.20;;;8.70;99.90;;;;;;5105792;28;20676;-84
2024/01/19 03:58:38;;;;;;;0.30;0.20;;;8.70;99.90;;;;;;5089649;28;20595;-79
2024/01/19 04:01:05;;;;;;;0.30;0.20;;;8.70;99.90;;;;;;5090085;28;20846;-79
2024/01/19 04:03:31;;;;;;;2.22;2.15;;;8.70;99.90;;;;;;5105232;28;20209;-82
2024/01/19 04:05:57;;;;;;;0.30;0.30;;;8.60;99.90;;;;;;5090102;28;20176;-79
2024/01/19 04:08:22;;;;;;;0.30;0.20;;;8.60;99.90;;;;;;5105475;28;20299;-79
2024/01/19 04:10:48;;;;;;;0.30;0.20;;;8.40;99.90;;;;;;5090103;28;20235;-79
2024/01/19 04:13:14;;;;;;;0.30;0.20;;;8.30;99.90;;;;;;5105619;28;20300;-79
2024/01/19 04:15:40;;;;;;;0.30;0.20;;;8.10;99.90;;;;;;5090482;28;20618;-83
2024/01/19 04:18:05;;;;;;;0.30;0.20;;;8.10;99.90;;;;;;5105025;28;20211;-85
2024/01/19 04:20:31;;;;;;;0.30;0.20;;;8.00;99.90;;;;;;5104910;28;20392;-84
2024/01/19 04:22:57;;;;;;;1.27;1.17;;;8.00;99.90;;;;;;5105059;28;20229;-79
2024/01/19 04:25:22;;;;;;;0.30;0.20;;;7.90;99.90;;;;;;5089648;28;20250;-79
2024/01/19 04:27:48;;;;;;;0.30;0.20;;;8.00;99.90;;;;;;5105507;28;20208;-79
2024/01/19 04:30:14;;;;;;;0.30;0.20;;;8.10;99.90;;;;;;5105136;28;20633;-85
2024/01/19 04:32:39;;;;;;;0.30;0.20;;;8.10;99.90;;;;;;5089825;28;20652;-85
2024/01/19 04:35:05;;;;;;;0.30;0.20;;;8.10;99.90;;;;;;5089227;28;20164;-84
2024/01/19 04:37:31;;;;;;;0.30;0.20;;;8.10;99.90;;;;;;5090148;28;20176;-79
2024/01/19 04:39:56;;;;;;;0.30;0.20;;;8.10;99.90;;;;;;5089169;28;20390;-85
2024/01/19 04:42:22;;;;;;;0.30;0.20;;;8.20;99.90;;;;;;5089624;28;20300;-79
2024/01/19 04:44:48;;;;;;;0.30;0.20;;;8.10;99.90;;;;;;5104820;28;20175;-85
2024/01/19 04:47:14;;;;;;;0.30;0.20;;;7.90;99.90;;;;;;5089778;28;20176;-85
2024/01/19 04:49:40;;;;;;;0.30;0.20;;;8.00;99.90;;;;;;5104929;28;20359;-85
2024/01/19 04:52:05;;;;;;;0.30;0.20;;;8.10;99.90;;;;;;5105068;28;20545;-79
2024/01/19 04:54:31;;;;;;;0.30;0.20;;;8.10;99.90;;;;;;5087978;28;20255;-79
2024/01/19 04:56:57;;;;;;;0.30;0.20;;;8.10;99.90;;;;;;5104675;28;20189;-79
2024/01/19 04:59:22;;;;;;;0.30;0.20;;;8.20;99.90;;;;;;5088618;28;20205;-79
2024/01/19 05:01:48;;;;;;;0.30;0.20;;;8.20;99.90;;;;;;5104471;28;20268;-79
2024/01/19 05:04:14;;;;;;;3.73;3.40;;;8.20;99.90;;;;;;5104310;28;20445;-80
2024/01/19 05:06:41;;;;;;;0.30;0.20;;;8.30;99.90;;;;;;5107723;28;20326;-79
2024/01/19 05:09:06;;;;;;;0.30;0.20;;;8.10;99.90;;;;;;5091933;28;20243;-79
2024/01/19 05:11:32;;;;;;;0.30;0.20;;;8.00;99.90;;;;;;5108358;28;20218;-79
2024/01/19 05:13:58;;;;;;;0.30;0.20;;;7.90;99.90;;;;;;5108479;28;20560;-85
2024/01/19 05:16:23;;;;;;;0.30;0.20;;;7.70;99.90;;;;;;5108946;28;20181;-86
2024/01/19 05:18:49;;;;;;;0.30;0.20;;;7.70;99.90;;;;;;5091557;28;20188;-80
2024/01/19 05:21:15;;;;;;;0.30;0.20;;;7.60;99.90;;;;;;5092238;28;20697;-80
2024/01/19 05:23:40;;;;;;;0.30;0.20;;;7.70;99.90;;;;;;5092881;28;20660;-86
2024/01/19 05:26:08;;;;;;;0.30;0.20;;;7.60;99.90;;;;;;5106942;28;20184;-86
2024/01/19 05:28:36;;;;;;;0.30;0.20;;;7.40;99.90;;;;;;5084556;28;20295;-87
2024/01/19 05:31:02;;;;;;;0.30;0.20;;;7.40;99.90;;;;;;5080581;28;20180;-80
2024/01/19 05:33:30;;;;;;;0.30;0.20;;;7.30;99.90;;;;;;5079695;28;20269;-80
2024/01/19 05:35:56;;;;;;;0.30;0.20;;;7.20;99.90;;;;;;5087409;28;20299;-80
2024/01/19 05:38:22;;;;;;;0.30;0.20;;;7.10;99.90;;;;;;5081621;28;20283;-86
2024/01/19 05:40:48;;;;;;;0.30;0.20;;;7.00;99.90;;;;;;5082761;28;20181;-86
2024/01/19 05:43:13;;;;;;;0.30;0.20;;;7.10;99.90;;;;;;5081185;28;20231;-86
2024/01/19 05:45:39;;;;;;;0.30;0.20;;;7.00;99.90;;;;;;5081652;28;20180;-84
2024/01/19 05:48:05;;;;;;;0.30;0.20;;;6.90;99.90;;;;;;5083250;28;20208;-80
2024/01/19 05:50:31;;;;;;;0.30;0.20;;;6.80;99.90;;;;;;5080171;28;20625;-85
2024/01/19 05:52:57;;;;;;;0.30;0.20;;;6.70;99.90;;;;;;5084682;28;21098;-86
2024/01/19 05:55:23;;;;;;;0.30;0.20;;;6.70;99.90;;;;;;5088955;28;20531;-80
2024/01/19 05:57:49;;;;;;;0.30;0.20;;;6.60;99.90;;;;;;5091796;28;20284;-80
2024/01/19 06:00:15;;;;;;;0.30;0.30;;;6.60;99.90;;;;;;5089570;28;20915;-80
2024/01/19 06:02:40;;;;;;;0.30;0.20;;;6.50;99.90;;;;;;5090424;28;20222;-80
2024/01/19 06:05:06;;;;;;;0.30;0.20;;;6.50;99.90;;;;;;5106988;27;20451;-80
2024/01/19 06:07:32;;;;;;;0.30;0.20;;;6.40;99.90;;;;;;5088565;28;20181;-80
2024/01/19 06:09:58;;;;;;;0.30;0.20;;;6.40;99.90;;;;;;5070757;28;20217;-88
2024/01/19 06:12:24;;;;;;;0.30;0.20;;;6.20;99.90;;;;;;5104347;28;20405;-81
2024/01/19 06:14:50;;;;;;;0.30;0.30;;;6.10;99.90;;;;;;5075541;28;20219;-85
2024/01/19 06:17:16;;;;;;;0.30;0.20;;;6.00;99.90;;;;;;5088840;28;20264;-86
2024/01/19 06:19:41;;;;;;;0.30;0.20;;;5.80;99.90;;;;;;5091070;28;20709;-86
2024/01/19 06:22:07;;;;;;;0.30;0.20;;;5.80;99.90;;;;;;5090414;28;20207;-87
2024/01/19 06:24:35;;;;;;;0.30;0.20;;;5.70;99.90;;;;;;5089559;28;20415;-86
2024/01/19 06:27:01;;;;;;;0.30;0.20;;;5.60;99.90;;;;;;5084157;28;20173;-80
2024/01/19 06:29:27;;;;;;;0.30;0.30;;;5.50;99.90;;;;;;5090086;28;20676;-80
2024/01/19 06:31:52;;;;;;;0.30;0.20;;;5.50;99.90;;;;;;5090344;28;20415;-85
2024/01/19 06:34:18;;;;;;;0.30;0.20;;;5.50;99.90;;;;;;5089781;28;20538;-80
2024/01/19 06:36:45;;;;;;;0.30;0.20;;;5.50;99.90;;;;;;5088758;28;20447;-86
2024/01/19 06:39:11;;;;;;;0.30;0.20;;;5.40;99.90;;;;;;5085704;28;20200;-85
2024/01/19 06:41:44;;;;;;;0.30;0.20;;;5.40;99.90;;;;;;5102348;28;20193;-86
2024/01/19 06:44:11;;;;;;;0.30;0.30;;;5.40;99.90;;;;;;5088711;28;20188;-85
2024/01/19 06:46:37;;;;;;;0.30;0.30;;;5.40;99.90;;;;;;5089410;28;20201;-85
2024/01/19 06:49:02;;;;;;;0.30;0.30;;;5.40;99.90;;;;;;5086392;28;20257;-79
2024/01/19 06:51:28;;;;;;;0.30;0.20;;;5.40;99.90;;;;;;5085650;28;20496;-86
2024/01/19 06:53:57;;;;;;;0.30;0.20;;;5.40;99.90;;;;;;5084940;28;20227;-86
2024/01/19 06:56:23;;;;;;;0.30;0.20;;;5.40;99.90;;;;;;5086742;28;20181;-81
2024/01/19 06:58:48;;;;;;;0.30;0.20;;;5.40;99.90;;;;;;5085176;28;20193;-86
2024/01/19 07:01:14;;;;;;;0.30;0.20;;;5.40;99.90;;;;;;5087547;28;20195;-86
2024/01/19 07:03:40;;;;;;;0.30;0.20;;;5.40;99.90;;;;;;5086648;28;20208;-86
2024/01/19 07:06:06;;;;;;;0.30;0.20;;;5.40;99.90;;;;;;5083625;28;20418;-79
2024/01/19 07:08:31;;;;;;;0.30;0.20;;;5.40;99.90;;;;;;5086238;28;20300;-87
2024/01/19 07:10:57;;;;;;;0.30;0.23;;;5.50;99.90;;;;;;5083931;28;20232;-85
2024/01/19 07:13:23;;;;;;;0.30;0.20;;;5.50;99.90;;;;;;5085264;28;20220;-79
2024/01/19 07:15:49;;;;;;;0.30;0.20;;;5.50;99.90;;;;;;5084566;28;20207;-85
2024/01/19 07:18:14;;;;;;;0.30;0.30;;;5.40;99.90;;;;;;5084791;28;20227;-86
2024/01/19 07:20:41;;;;;;;0.30;0.20;;;5.50;99.90;;;;;;5084649;28;20383;-84
2024/01/19 07:23:07;;;;;;;0.30;0.30;;;5.50;99.90;;;;;;5081542;28;20859;-86
2024/01/19 07:25:33;;;;;;;0.30;0.20;;;5.50;99.90;;;;;;5082730;28;20233;-80
2024/01/19 07:27:59;;;;;;;0.30;0.30;;;5.50;99.90;;;;;;5083518;28;20211;-86
2024/01/19 07:30:24;;;;;;;0.30;0.20;;;5.60;99.90;;;;;;5085196;28;20172;-86
2024/01/19 07:32:50;;;;;;;0.30;0.20;;;5.60;99.90;;;;;;5085893;28;20900;-86
2024/01/19 07:35:17;;;;;;;0.30;0.30;;;5.60;99.90;;;;;;5085175;28;20233;-84
2024/01/19 07:37:43;;;;;;;0.30;0.20;;;5.60;99.90;;;;;;5084982;28;20208;-86
2024/01/19 07:40:09;;;;;;;0.30;0.20;;;5.60;99.90;;;;;;5088477;28;20184;-79
2024/01/19 07:42:34;;;;;;;0.30;0.30;;;5.70;99.90;;;;;;5095082;28;20213;-86
2024/01/19 07:45:00;;;;;;;0.30;0.30;;;5.70;99.90;;;;;;5086052;28;20239;-80
2024/01/19 07:47:26;;;;;;;0.30;0.20;;;5.70;99.90;;;;;;5084786;28;20184;-79
2024/01/19 07:49:52;;;;;;;0.30;0.30;;;5.60;99.90;;;;;;5088083;28;20183;-85
2024/01/19 07:52:20;;;;;;;0.30;0.20;;;5.70;99.90;;;;;;5086272;28;20273;-86
2024/01/19 07:54:45;;;;;;;0.30;0.30;;;5.60;99.90;;;;;;5084153;28;20224;-79
2024/01/19 07:57:11;;;;;;;0.30;0.20;;;5.70;99.90;;;;;;5083971;28;20245;-85
2024/01/19 07:59:36;;;;;;;0.40;0.30;;;5.60;99.90;;;;;;5082477;28;20217;-86
2024/01/19 08:02:03;;;;;;;0.30;0.20;;;5.60;99.90;;;;;;5080968;28;20607;-86
2024/01/19 08:04:29;;;;;;;0.30;0.20;;;5.60;99.90;;;;;;5082760;28;20230;-79
2024/01/19 08:06:55;;;;;;;0.30;0.20;;;5.60;99.90;;;;;;5080733;28;20180;-78
2024/01/19 08:09:21;;;;;;;0.30;0.20;;;5.50;99.90;;;;;;5083550;28;20437;-79
2024/01/19 08:11:47;;;;;;;0.30;0.20;;;5.50;99.90;;;;;;5083809;28;20187;-80
2024/01/19 08:14:13;;;;;;;0.30;0.20;;;5.40;99.90;;;;;;5084143;28;20212;-86
2024/01/19 08:16:42;;;;;;;0.30;0.20;;;5.40;99.90;;;;;;5083287;28;20198;-86
2024/01/19 08:19:08;;;;;;;0.30;0.20;;;5.30;99.90;;;;;;5081275;28;20207;-79
2024/01/19 08:21:41;;;;;;;0.30;0.20;;;5.20;99.90;;;;;;5080429;28;20266;-86
2024/01/19 08:24:06;;;;;;;0.30;0.20;;;5.20;99.90;;;;;;5089752;28;20254;-86
2024/01/19 08:26:32;;;;;;;0.30;0.20;;;5.10;99.90;;;;;;5089850;28;20189;-87
2024/01/19 08:29:00;;;;;;;0.30;0.20;;;5.10;99.90;;;;;;5072985;28;20233;-79
2024/01/19 08:31:27;;;;;;;0.30;0.20;;;5.20;99.90;;;;;;5079352;28;20847;-80
2024/01/19 08:33:53;;;;;;;0.30;0.20;;;5.20;99.90;;;;;;5078843;28;20849;-87
2024/01/19 08:36:23;;;;;;;0.30;0.20;;;5.10;99.90;;;;;;5072542;28;20172;-80
2024/01/19 08:38:50;;;;;;;0.30;0.20;;;5.10;99.90;;;;;;5076638;28;20923;-79
2024/01/19 08:41:16;;;;;;;0.30;0.20;;;5.00;99.90;;;;;;5078097;28;20229;-86
2024/01/19 08:43:42;;;;;;;0.30;0.20;;;5.00;99.90;;;;;;5080389;28;20203;-88
2024/01/19 08:46:08;;;;;;;0.30;0.20;;;4.90;99.90;;;;;;5075925;28;20833;-79
2024/01/19 08:48:33;;;;;;;0.30;0.20;;;4.90;99.90;;;;;;5078146;28;20279;-79
2024/01/19 08:51:00;;;;;;;0.30;0.20;;;4.80;99.90;;;;;;5083559;28;20449;-85
2024/01/19 08:53:27;;;;;;;0.30;0.20;;;4.80;99.90;;;;;;5084876;28;20219;-87
2024/01/19 08:55:53;;;;;;;0.30;0.20;;;4.70;99.90;;;;;;5081044;28;20208;-86
2024/01/19 08:58:20;;;;;;;0.30;0.20;;;4.60;99.90;;;;;;5083922;28;20192;-79
2024/01/19 09:00:45;;;;;;;0.30;0.20;;;4.60;99.90;;;;;;5081548;28;20183;-85
2024/01/19 09:03:11;;;;;;;0.30;0.20;;;4.60;99.90;;;;;;5083501;28;20656;-81
2024/01/19 09:05:37;;;;;;;0.30;0.20;;;4.50;99.90;;;;;;5079409;28;20417;-80
2024/01/19 09:08:03;;;;;;;0.30;0.30;;;4.50;99.90;;;;;;5077378;28;20330;-87
2024/01/19 09:10:29;;;;;;;0.30;0.20;;;4.50;99.90;;;;;;5077004;28;20224;-80
2024/01/19 09:12:58;;;;;;;0.30;0.20;;;4.40;99.90;;;;;;5078711;28;20873;-80
2024/01/19 09:15:24;;;;;;;0.30;0.20;;;4.40;99.90;;;;;;5078767;28;20180;-86
2024/01/19 09:17:49;;;;;;;0.30;0.20;;;4.40;99.90;;;;;;5081801;28;20338;-87
2024/01/19 09:20:15;;;;;;;0.30;0.20;;;4.40;99.90;;;;;;5081925;28;20263;-80
2024/01/19 09:22:42;;;;;;;0.30;0.20;;;4.30;99.90;;;;;;5080246;28;20634;-81
2024/01/19 09:25:08;;;;;;;0.30;0.20;;;4.30;99.90;;;;;;5081538;28;20782;-86
2024/01/19 09:27:34;;;;;;;0.30;0.20;;;4.20;99.90;;;;;;5076549;28;20224;-80
2024/01/19 09:30:00;;;;;;;0.30;0.20;;;4.30;99.90;;;;;;5090649;28;20811;-78
2024/01/19 09:32:26;;;;;;;0.30;0.20;;;4.20;99.90;;;;;;5076570;28;20199;-84
2024/01/19 09:34:53;;;;;;;0.30;0.20;;;4.20;99.90;;;;;;5077389;28;20208;-85
2024/01/19 09:37:19;;;;;;;0.30;0.20;;;4.30;99.90;;;;;;5075116;28;20238;-78
2024/01/19 09:39:44;;;;;;;0.30;0.20;;;4.20;99.90;;;;;;5084615;28;20208;-84
2024/01/19 09:42:32;;;;;;;0.30;0.20;;;4.20;99.90;;;;;;5088625;28;20238;-80
2024/01/19 09:45:04;;;;;;;0.30;0.20;;;4.20;99.90;;;;;;5076595;28;20582;-79
2024/01/19 09:48:01;;;;;;;0.30;0.30;;;4.20;99.90;;;;;;5082167;28;20684;-87
2024/01/19 09:50:34;;;;;;;0.30;0.20;;;4.20;99.90;;;;;;5080101;28;20229;-80
2024/01/19 09:53:00;;;;;;;0.30;0.20;;;4.20;99.90;;;;;;5079503;28;20216;-80
2024/01/19 09:55:27;;;;;;;0.30;0.20;;;4.20;99.90;;;;;;5071329;28;20312;-79
2024/01/19 09:57:54;;;;;;;0.30;0.20;;;4.10;99.90;;;;;;5086284;28;20216;-80
2024/01/19 10:00:20;;;;;;;0.30;0.28;;;4.10;99.90;;;;;;5084578;28;20223;-86
2024/01/19 10:02:53;;;;;;;0.30;0.20;;;4.10;99.90;;;;;;5079615;28;20204;-79
2024/01/19 10:05:20;;;;;;;0.30;0.20;;;4.10;99.90;;;;;;5077463;28;20413;-80
2024/01/19 10:07:55;;;;;;;0.30;0.20;;;4.10;99.90;;;;;;5084840;28;20586;-86
2024/01/19 10:10:21;;;;;;;0.30;0.20;;;4.10;99.90;;;;;;5084118;28;20283;-86
2024/01/19 10:12:46;;;;;;;0.30;0.20;;;4.10;99.90;;;;;;5088364;28;20201;-85
2024/01/19 10:15:14;;;;;;;0.30;0.20;;;4.10;99.90;;;;;;5085759;28;20917;-79
2024/01/19 10:17:42;;;;;;;0.30;0.20;;;4.10;99.90;;;;;;5084136;28;20189;-79
2024/01/19 10:20:14;;;;;;;0.30;0.20;;;4.20;99.90;;;;;;5084780;28;20177;-86
2024/01/19 10:22:39;;;;;;;0.30;0.20;;;4.10;99.90;;;;;;5070486;28;20200;-87
2024/01/19 10:25:08;;;;;;;0.30;0.20;;;4.10;99.90;;;;;;5075368;28;20185;-85
2024/01/19 10:28:06;;;;;;;0.30;0.20;;;4.10;99.90;;;;;;5082284;28;20415;-83
2024/01/19 10:30:32;;;;;;;0.30;0.20;;;4.10;99.90;;;;;;5050423;28;20192;-85
2024/01/19 10:33:06;;;;;;;0.30;0.20;;;4.10;99.90;;;;;;5087534;28;20219;-79
2024/01/19 10:35:32;;;;;;;0.30;0.20;;;4.10;99.90;;;;;;5086507;28;20192;-80
2024/01/19 10:38:05;;;;;;;0.30;0.20;;;4.10;99.90;;;;;;5088778;28;20204;-79
2024/01/19 10:40:33;;;;;;;0.30;0.20;;;4.10;99.90;;;;;;5083446;28;20193;-80
2024/01/19 10:42:59;;;;;;;0.30;0.20;;;4.00;99.90;;;;;;5080040;28;20208;-80
2024/01/19 10:45:28;;;;;;;0.30;0.20;;;4.00;99.90;;;;;;5078694;28;20697;-85
2024/01/19 10:48:02;;;;;;;0.30;0.20;;;4.00;99.90;;;;;;5101133;28;20209;-80
2024/01/19 10:50:30;;;;;;;0.30;0.30;;;4.00;99.90;;;;;;5087559;28;20698;-86
2024/01/19 10:53:00;;;;;;;0.30;0.20;;;4.00;99.90;;;;;;5099907;28;20236;-83
2024/01/19 10:55:27;;;;;;;0.30;0.20;;;4.00;99.90;;;;;;5083120;28;20172;-80
2024/01/19 10:58:05;;;;;;;0.30;0.20;;;3.90;99.90;;;;;;5080882;28;20550;-80
2024/01/19 11:00:31;;;;;;;0.30;0.20;;;3.90;99.90;;;;;;5078711;28;20185;-85
2024/01/19 11:02:58;;;;;;;0.30;0.20;;;3.90;99.90;;;;;;5084482;28;20228;-85
2024/01/19 11:05:24;;;;;;;0.30;0.20;;;3.90;99.90;;;;;;5087588;28;20184;-85
2024/01/19 11:07:57;;;;;;;0.30;0.20;;;3.90;99.90;;;;;;5086045;28;20770;-85
2024/01/19 11:10:25;;;;;;;0.30;0.20;;;3.90;99.90;;;;;;5086671;28;20217;-80
2024/01/19 11:12:55;;;;;;;0.30;0.30;;;3.90;99.90;;;;;;5077835;28;20205;-82
2024/01/19 11:15:27;;;;;;;0.30;0.20;;;3.80;99.90;;;;;;5080443;28;20706;-85
2024/01/19 11:17:56;;;;;;;0.30;0.20;;;3.90;99.90;;;;;;5074741;28;20276;-84
2024/01/19 11:20:23;;;;;;;0.30;0.20;;;3.90;99.90;;;;;;5081842;28;20276;-78
2024/01/19 11:22:50;;;;;;;0.30;0.20;;;3.90;99.90;;;;;;5081477;28;20564;-86
2024/01/19 11:25:23;;;;;;;0.30;0.20;;;3.80;99.90;;;;;;5076817;28;20179;-79
2024/01/19 11:28:03;;;;;;;0.30;0.20;;;3.80;99.90;;;;;;5077585;28;20266;-85
2024/01/19 11:31:22;;;;;;;0.30;0.20;;;3.90;99.90;;;;;;5078405;28;20180;-86
2024/01/19 11:33:48;;;;;;;0.30;0.20;;;3.90;99.90;;;;;;5082926;28;20291;-86
2024/01/19 11:36:39;;;;;;;0.30;0.20;;;3.90;99.90;;;;;;5082768;28;20401;-86
2024/01/19 11:39:05;;;;;;;0.30;0.20;;;3.90;99.90;;;;;;5076824;28;20506;-86
2024/01/19 11:41:34;;;;;;;0.30;0.20;;;3.80;99.90;;;;;;5085022;28;20185;-86
2024/01/19 11:44:04;;;;;;;0.30;0.20;;;3.80;99.90;;;;;;5083285;28;20822;-79
2024/01/19 11:46:47;;;;;;;0.30;0.20;;;3.80;99.90;;;;;;5082196;28;20187;-79
2024/01/19 11:49:35;;;;;;;0.30;0.20;;;3.80;99.90;;;;;;5074810;28;20197;-85
2024/01/19 11:52:03;;;;;;;0.30;0.20;;;3.80;99.90;;;;;;5079142;28;20180;-79
2024/01/19 11:54:29;;;;;;;0.30;0.20;;;3.80;99.90;;;;;;5079460;28;20216;-79
2024/01/19 11:57:21;;;;;;;0.30;0.20;;;3.80;99.90;;;;;;5083733;28;20649;-86
2024/01/19 11:59:47;;;;;;;0.30;0.20;;;3.80;99.90;;;;;;5077210;28;20387;-79
2024/01/19 12:02:33;;;;;;;0.30;0.22;;;3.80;99.90;;;;;;5075768;28;20667;-79
2024/01/19 12:05:07;;;;;;;0.30;0.20;;;3.80;99.90;;;;;;5076529;28;20344;-86
2024/01/19 12:07:33;;;;;;;0.30;0.20;;;3.80;99.90;;;;;;5083365;28;20191;-79
2024/01/19 12:10:31;;;;;;;0.30;0.30;;;3.70;99.90;;;;;;5084887;28;20251;-86
2024/01/19 12:12:57;;;;;;;0.30;0.20;;;3.80;99.90;;;;;;5075273;28;20444;-85
2024/01/19 12:15:23;;;;;;;0.30;0.20;;;3.90;99.90;;;;;;5078804;28;20325;-79
2024/01/19 12:17:49;;;;;;;0.30;0.20;;;4.20;99.90;;;;;;5081490;28;20295;-80
2024/01/19 12:20:17;;;;;;;0.30;0.20;;;4.20;99.90;;;;;;5077093;28;20188;-79
2024/01/19 12:22:45;;;;;;;0.30;0.20;;;4.10;99.90;;;;;;5076130;28;20780;-79
2024/01/19 12:25:18;;;;;;;0.30;0.20;;;4.00;99.90;;;;;;5074342;28;20180;-86
2024/01/19 12:27:45;;;;;;;0.30;0.20;;;3.90;99.90;;;;;;5072165;28;20434;-86
2024/01/19 12:30:21;;;;;;;0.30;0.20;;;3.80;99.90;;;;;;5086333;28;20420;-85
2024/01/19 12:32:47;;;;;;;0.30;0.20;;;3.80;99.90;;;;;;5082702;28;20204;-79
2024/01/19 12:35:13;;;;;;;0.30;0.20;;;3.70;99.90;;;;;;5086088;28;20172;-85
2024/01/19 12:37:38;;;;;;;0.30;0.20;;;3.60;99.90;;;;;;5085058;28;20185;-85
2024/01/19 12:40:21;;;;;;;0.30;0.20;;;3.60;99.90;;;;;;5083833;28;20485;-83
2024/01/19 12:42:47;;;;;;;0.30;0.20;;;3.60;99.90;;;;;;5081487;28;20254;-80
2024/01/19 12:45:19;;;;;;;0.30;0.20;;;3.60;99.90;;;;;;5066614;28;20181;-80
2024/01/19 12:47:46;;;;;;;0.30;0.20;;;3.60;99.90;;;;;;5081955;28;20208;-79
2024/01/19 12:50:12;;;;;;;0.30;0.20;;;3.50;99.90;;;;;;5082485;28;20267;-85
2024/01/19 12:52:38;;;;;;;0.30;0.20;;;3.50;99.90;;;;;;5079847;28;20184;-86
2024/01/19 12:55:04;;;;;;;0.30;0.20;;;3.50;99.90;;;;;;5079168;28;20597;-86
2024/01/19 12:57:30;;;;;;;0.30;0.20;;;3.50;99.90;;;;;;5074819;28;20192;-79